Time;durP1;ratioP1;P1;durP2;ratioP2;P2;SDS_P1;SDS_P2;PMS_P1;PMS_P2;Temp;Humidity;BMP_temperature;BMP_pressure;BME280_temperature;BME280_humidity;BME280_pressure;Samples;Min_cycle;Max_cycle;Signal;HPM_P1;HPM_P2
2022/11/16 00:04:13;;;;;;;16.63;8.73;;;;;;;12.96;75.04;98986.19;10367496;28;20046;-63
2022/11/16 00:09:27;;;;;;;14.90;7.50;;;;;;;12.85;75.12;98983.16;10364451;28;20066;-63
2022/11/16 00:14:31;;;;;;;12.80;6.50;;;;;;;12.84;75.66;98989.63;10365721;28;20166;-63
2022/11/16 00:19:32;;;;;;;13.60;7.57;;;;;;;12.83;75.81;98984.44;10367527;28;20037;-62
2022/11/16 00:24:34;;;;;;;13.07;7.63;;;;;;;12.81;75.79;98984.66;10361975;28;20096;-62
2022/11/16 00:29:35;;;;;;;10.98;7.47;;;;;;;12.81;75.62;98994.63;10366189;28;20077;-64
2022/11/16 00:34:38;;;;;;;13.73;7.53;;;;;;;12.80;76.29;98996.53;10321237;28;20054;-64
2022/11/16 00:39:39;;;;;;;11.43;7.40;;;;;;;12.84;75.86;99000.41;10351359;28;20133;-64
2022/11/16 00:44:41;;;;;;;17.00;7.93;;;;;;;12.86;76.12;98989.41;10346886;28;20042;-63
2022/11/16 00:49:42;;;;;;;15.73;8.35;;;;;;;12.87;76.20;98991.88;10349739;28;20058;-64
2022/11/16 00:54:44;;;;;;;16.25;7.68;;;;;;;12.87;76.09;98988.34;10335435;28;20669;-63
2022/11/16 00:59:45;;;;;;;13.07;6.93;;;;;;;12.83;76.41;98981.75;10368186;28;20084;-62
2022/11/16 01:04:46;;;;;;;17.92;8.40;;;;;;;12.81;76.10;98984.66;10367189;28;20068;-62
2022/11/16 01:09:48;;;;;;;11.57;7.53;;;;;;;12.79;76.23;98984.06;10359657;28;20069;-63
2022/11/16 01:14:49;;;;;;;13.65;8.00;;;;;;;12.80;76.29;98966.84;10345662;28;20037;-63
2022/11/16 01:19:51;;;;;;;14.35;8.50;;;;;;;12.75;77.00;98971.28;10395178;28;20053;-64
2022/11/16 01:24:52;;;;;;;12.57;7.43;;;;;;;12.72;77.04;98964.47;10370213;28;20046;-64
2022/11/16 01:29:54;;;;;;;14.82;7.90;;;;;;;12.66;76.80;98959.97;10398114;28;20026;-64
2022/11/16 01:34:55;;;;;;;12.02;7.47;;;;;;;12.62;77.38;98961.47;10411289;28;20050;-63
2022/11/16 01:39:57;;;;;;;14.27;8.20;;;;;;;12.61;77.39;98960.63;10404770;28;20049;-63
2022/11/16 01:45:21;;;;;;;13.90;7.82;;;;;;;12.58;77.11;98946.75;10396797;28;20026;-64
2022/11/16 01:50:23;;;;;;;14.80;8.63;;;;;;;12.50;77.74;98946.03;10397133;28;20041;-63
2022/11/16 01:55:29;;;;;;;15.35;8.40;;;;;;;12.53;77.36;98935.84;10408368;28;20026;-65
2022/11/16 02:00:30;;;;;;;17.08;7.80;;;;;;;12.55;77.12;98931.88;10400787;23;20046;-92
2022/11/16 02:05:57;;;;;;;12.98;7.63;;;;;;;12.49;77.76;98938.16;10320412;28;20069;-91
2022/11/16 02:11:10;;;;;;;14.30;7.35;;;;;;;12.46;77.65;98931.34;10302293;28;20050;-92
2022/11/16 02:16:17;;;;;;;15.15;8.45;;;;;;;12.49;77.35;98930.06;10292739;28;20049;-91
2022/11/16 02:21:33;;;;;;;14.45;8.60;;;;;;;12.52;77.56;98935.03;10303163;28;20046;-91
2022/11/16 02:26:40;;;;;;;18.38;9.18;;;;;;;12.59;77.44;98922.28;10319650;28;20046;-90
2022/11/16 02:31:56;;;;;;;13.97;9.27;;;;;;;12.53;77.80;98917.78;10290422;28;20070;-90
2022/11/16 02:36:59;;;;;;;16.45;9.18;;;;;;;12.55;77.40;98910.31;10300131;28;20286;-91
2022/11/16 02:42:04;;;;;;;15.25;8.65;;;;;;;12.56;77.31;98905.72;10322505;28;20073;-89
2022/11/16 02:47:11;;;;;;;17.70;9.35;;;;;;;12.51;77.68;98903.72;10312582;28;20042;-89
2022/11/16 02:52:14;;;;;;;22.50;10.82;;;;;;;12.49;77.98;98900.44;10308401;28;20043;-91
2022/11/16 02:57:22;;;;;;;19.10;9.27;;;;;;;12.50;77.67;98894.00;10303788;28;20046;-91
2022/11/16 03:02:26;;;;;;;16.67;8.98;;;;;;;12.52;77.62;98894.59;10323094;28;20047;-93
2022/11/16 03:07:33;;;;;;;22.30;9.40;;;;;;;12.54;77.96;98889.81;10304288;28;20050;-91
2022/11/16 03:12:37;;;;;;;;;;;;;;;12.53;77.68;98882.75;10322914;28;20050;-91
2022/11/16 03:17:48;;;;;;;18.13;9.00;;;;;;;12.53;77.63;98884.63;10306213;28;19925;-90
2022/11/16 03:22:57;;;;;;;14.77;8.85;;;;;;;12.37;78.12;98894.94;10290560;28;20058;-89
2022/11/16 03:28:20;;;;;;;20.75;9.90;;;;;;;12.34;78.45;98892.69;10306940;28;20056;-92
2022/11/16 03:33:44;;;;;;;20.95;9.32;;;;;;;12.39;78.55;98889.34;10335416;23;20066;-62
2022/11/16 03:38:49;;;;;;;21.08;10.55;;;;;;;12.30;78.51;98886.94;10281511;28;20461;-61
2022/11/16 03:43:53;;;;;;;20.05;10.45;;;;;;;12.30;78.34;98891.50;10306892;28;20050;-62
2022/11/16 03:48:56;;;;;;;18.70;9.50;;;;;;;12.30;78.39;98878.03;10306481;28;20042;-62
2022/11/16 03:53:58;;;;;;;20.13;10.65;;;;;;;12.36;78.33;98870.91;10289729;28;20071;-63
2022/11/16 03:58:59;;;;;;;19.17;11.07;;;;;;;12.30;78.54;98875.31;10286637;28;20081;-62
2022/11/16 04:04:00;;;;;;;16.80;9.98;;;;;;;12.18;79.02;98886.00;10278153;28;20062;-62
2022/11/16 04:25:12;;;;;;;25.42;12.43;;;;;;;12.24;78.76;98898.63;10261604;28;20118;-60
2022/11/16 04:30:14;;;;;;;26.80;12.63;;;;;;;12.34;78.54;98886.50;10223581;28;20040;-60
2022/11/16 04:40:35;;;;;;;21.27;12.07;;;;;;;12.43;78.62;98890.53;10223801;28;20074;-60
2022/11/16 04:50:56;;;;;;;19.35;11.07;;;;;;;12.47;78.50;98889.03;10222279;28;20126;-59
2022/11/16 04:55:58;;;;;;;18.92;11.15;;;;;;;12.61;78.68;98890.53;10223925;28;20071;-60
2022/11/16 05:01:01;;;;;;;19.80;11.50;;;;;;;12.57;78.15;98899.31;10217767;28;20087;-60
2022/11/16 05:06:02;;;;;;;20.77;10.85;;;;;;;12.55;78.81;98896.81;10224865;29;20046;-60
2022/11/16 05:11:04;;;;;;;23.98;11.43;;;;;;;12.66;78.72;98892.56;10226194;29;20066;-59
2022/11/16 05:16:06;;;;;;;23.35;11.77;;;;;;;12.69;78.73;98908.28;10221875;28;20134;-60
2022/11/16 05:21:07;;;;;;;18.77;11.00;;;;;;;12.70;78.48;98910.75;10213331;28;20501;-60
2022/11/16 05:26:09;;;;;;;23.92;12.20;;;;;;;12.81;78.78;98913.75;10222670;29;20043;-59
2022/11/16 05:31:10;;;;;;;25.52;13.35;;;;;;;12.74;79.25;98907.59;10221635;28;20127;-60
2022/11/16 05:36:11;;;;;;;23.38;12.63;;;;;;;12.76;79.39;98906.34;10222765;28;20082;-61
2022/11/16 05:41:13;;;;;;;31.02;13.50;;;;;;;12.75;79.55;98901.97;10219797;28;20040;-61
2022/11/16 05:46:15;;;;;;;30.00;14.55;;;;;;;12.76;79.38;98906.34;10215066;29;20047;-61
2022/11/16 05:51:16;;;;;;;39.13;15.82;;;;;;;12.66;80.18;98911.44;10221181;28;20075;-60
2022/11/16 05:56:18;;;;;;;38.13;16.40;;;;;;;12.66;79.95;98912.25;10221920;29;20039;-60
2022/11/16 06:01:19;;;;;;;33.35;15.48;;;;;;;12.66;79.98;98909.56;10220840;28;20055;-61
2022/11/16 06:06:22;;;;;;;31.88;15.18;;;;;;;12.64;80.14;98922.44;10224020;29;20047;-61
2022/11/16 06:11:23;;;;;;;35.22;16.10;;;;;;;12.69;80.47;98913.66;10217864;29;20047;-61
2022/11/16 06:16:25;;;;;;;32.38;15.20;;;;;;;12.73;80.47;98922.13;10222149;28;20131;-61
2022/11/16 06:21:26;;;;;;;30.80;15.73;;;;;;;12.79;80.11;98915.84;10229860;28;20568;-61
2022/11/16 06:26:28;;;;;;;35.30;16.13;;;;;;;12.81;80.17;98922.66;10231616;28;20052;-64
2022/11/16 06:31:29;;;;;;;25.75;13.68;;;;;;;12.80;80.26;98931.81;10214504;28;20071;-62
2022/11/16 06:36:31;;;;;;;36.38;15.07;;;;;;;12.80;80.43;98939.06;10226346;28;20071;-63
2022/11/16 06:41:33;;;;;;;31.25;14.35;;;;;;;12.78;80.34;98938.47;10222811;28;20642;-62
2022/11/16 06:46:40;;;;;;;29.80;14.73;;;;;;;12.79;80.08;98942.81;10226734;28;20048;-63
2022/11/16 06:51:41;;;;;;;32.78;15.23;;;;;;;12.81;80.44;98938.81;10227097;28;20479;-62
2022/11/16 06:56:43;;;;;;;33.97;16.52;;;;;;;12.86;80.20;98940.88;10230219;28;20051;-61
2022/11/16 07:01:44;;;;;;;29.20;15.20;;;;;;;12.79;80.38;98951.72;10226456;28;20043;-63
2022/11/16 07:06:46;;;;;;;32.33;15.55;;;;;;;12.84;79.96;98954.56;10234273;28;20051;-63
2022/11/16 07:11:47;;;;;;;34.83;16.92;;;;;;;12.86;80.01;98952.47;10213689;29;20063;-62
2022/11/16 07:16:49;;;;;;;28.10;14.68;;;;;;;12.83;80.31;98957.47;10225543;28;20510;-64
2022/11/16 07:21:58;;;;;;;31.88;15.25;;;;;;;12.82;79.97;98969.34;10223096;28;20781;-64
2022/11/16 07:27:00;;;;;;;26.40;15.15;;;;;;;12.81;80.33;98971.19;10227916;28;20127;-64
2022/11/16 07:32:01;;;;;;;31.10;14.35;;;;;;;12.79;80.08;98977.88;10243584;28;20043;-63
2022/11/16 07:37:02;;;;;;;26.60;13.88;;;;;;;12.75;80.52;98980.19;10241724;28;20067;-62
2022/11/16 07:42:10;;;;;;;26.80;14.52;;;;;;;12.81;80.31;98987.38;10231151;28;20494;-64
2022/11/16 07:47:11;;;;;;;27.33;15.13;;;;;;;12.81;80.53;98995.47;10263449;28;20105;-61
2022/11/16 07:52:13;;;;;;;23.85;13.88;;;;;;;12.87;80.12;99002.69;10284143;28;20063;-60
2022/11/16 07:57:14;;;;;;;24.88;13.73;;;;;;;12.90;80.28;99004.91;10284947;28;20047;-60
2022/11/16 08:02:15;;;;;;;25.95;13.50;;;;;;;13.10;80.25;99006.56;10264854;28;20576;-60
2022/11/16 08:07:17;;;;;;;19.75;13.02;;;;;;;13.16;79.81;98999.44;10283213;28;20402;-59
2022/11/16 08:12:19;;;;;;;20.05;11.52;;;;;;;13.16;79.62;99005.66;10289696;28;20027;-59
2022/11/16 08:17:20;;;;;;;18.58;11.60;;;;;;;13.25;79.56;99011.56;10289133;28;20052;-60
2022/11/16 08:22:22;;;;;;;19.27;10.40;;;;;;;13.32;79.71;99011.53;10287170;28;20046;-59
2022/11/16 08:27:23;;;;;;;16.73;8.60;;;;;;;13.31;79.58;99012.56;10303071;28;20143;-59
2022/11/16 08:32:24;;;;;;;15.10;8.40;;;;;;;13.09;80.24;99024.63;10303277;28;20024;-60
2022/11/16 08:37:27;;;;;;;14.63;8.68;;;;;;;13.24;79.90;99020.72;10310290;28;20061;-59
2022/11/16 08:42:28;;;;;;;12.57;6.88;;;;;;;13.21;79.91;99032.78;10306496;28;20050;-59
2022/11/16 08:47:30;;;;;;;17.60;8.38;;;;;;;13.38;79.25;99033.03;10311390;28;20046;-61
2022/11/16 08:52:32;;;;;;;17.73;8.48;;;;;;;13.51;78.98;99039.28;10314432;28;20035;-60
2022/11/16 08:57:33;;;;;;;15.82;8.07;;;;;;;13.63;78.83;99046.41;10289714;28;20047;-59
2022/11/16 09:02:34;;;;;;;15.57;7.68;;;;;;;13.67;79.12;99055.69;10287547;28;20031;-66
2022/11/16 09:07:37;;;;;;;10.60;5.97;;;;;;;13.67;78.77;99069.19;10304499;28;20043;-60
2022/11/16 09:12:38;;;;;;;12.07;6.32;;;;;;;13.69;78.71;99067.09;10594515;23;20125;-59
2022/11/16 09:17:40;;;;;;;13.65;6.53;;;;;;;13.69;78.77;99060.88;10405391;28;20038;-66
2022/11/16 09:22:41;;;;;;;8.27;4.72;;;;;;;13.71;78.69;99049.84;10397189;28;20128;-65
2022/11/16 09:27:43;;;;;;;14.77;6.00;;;;;;;13.83;78.58;99056.13;10399614;28;20132;-62
2022/11/16 09:32:44;;;;;;;9.75;4.82;;;;;;;13.73;78.72;99062.06;10400151;28;20125;-67
2022/11/16 09:37:45;;;;;;;6.05;3.30;;;;;;;13.64;78.38;99068.81;10397552;28;20084;-67
2022/11/16 09:43:17;;;;;;;7.85;2.90;;;;;;;13.61;78.53;99074.69;10402807;28;20034;-66
2022/11/16 09:48:20;;;;;;;4.57;0.80;;;;;;;13.48;78.28;99075.69;10402063;28;20132;-66
2022/11/16 09:53:27;;;;;;;3.28;0.40;;;;;;;13.44;77.91;99085.28;10401011;28;20120;-66
2022/11/16 09:58:33;;;;;;;;;;;;;;;13.54;78.55;99087.44;10403070;28;20123;-66
2022/11/16 10:03:42;;;;;;;4.75;0.70;;;;;;;13.67;77.67;99088.09;10398462;28;19971;-67
2022/11/16 10:08:50;;;;;;;4.75;0.60;;;;;;;13.69;77.17;99088.69;10401646;28;20128;-67
2022/11/16 10:14:03;;;;;;;5.72;0.63;;;;;;;13.75;76.63;99088.84;10403137;28;20133;-64
2022/11/16 10:19:37;;;;;;;10.52;0.63;;;;;;;13.73;76.46;99086.38;10401727;28;20033;-66
2022/11/16 10:24:56;;;;;;;1.13;0.40;;;;;;;13.86;75.82;99088.06;10398976;28;20041;-67
2022/11/16 10:30:10;;;;;;;5.75;0.73;;;;;;;13.99;75.32;99081.66;10400631;28;20076;-67
2022/11/16 10:35:17;;;;;;;4.88;0.80;;;;;;;14.07;75.06;99082.16;10397926;28;20714;-66
2022/11/16 10:40:22;;;;;;;4.80;0.35;;;;;;;14.16;74.68;99081.81;10404027;28;20496;-67
2022/11/16 10:45:31;;;;;;;3.75;0.70;;;;;;;14.23;74.23;99080.66;10404196;28;20052;-68
2022/11/16 10:50:39;;;;;;;5.10;0.40;;;;;;;14.34;73.77;99075.53;10404508;28;20041;-67
2022/11/16 10:55:41;;;;;;;6.18;0.40;;;;;;;14.51;73.27;99072.97;10406373;28;20077;-67
2022/11/16 11:00:48;;;;;;;8.48;0.68;;;;;;;14.41;72.93;99063.53;10405894;28;20133;-67
2022/11/16 11:05:52;;;;;;;10.65;1.70;;;;;;;14.55;73.17;99072.25;10406714;28;20056;-68
2022/11/16 11:11:01;;;;;;;6.32;0.95;;;;;;;14.74;72.53;99062.19;10405773;28;20120;-68
2022/11/16 11:16:15;;;;;;;1.75;0.40;;;;;;;14.75;72.26;99052.19;10404698;28;20077;-68
2022/11/16 11:21:20;;;;;;;5.35;0.60;;;;;;;14.73;72.21;99059.72;10407901;28;20128;-67
2022/11/16 11:26:33;;;;;;;4.03;0.57;;;;;;;14.75;71.96;99058.44;10405244;28;20080;-65
2022/11/16 11:31:43;;;;;;;7.05;0.98;;;;;;;14.83;71.38;99058.09;10402999;28;20054;-69
2022/11/16 11:36:53;;;;;;;17.58;0.60;;;;;;;14.81;71.21;99054.81;10405827;28;21094;-69
2022/11/16 11:42:13;;;;;;;8.15;0.50;;;;;;;14.85;70.97;99049.75;10384840;28;20049;-65
2022/11/16 11:47:32;;;;;;;6.25;0.50;;;;;;;15.07;70.46;99047.25;10404552;28;20049;-66
2022/11/16 11:53:22;;;;;;;4.10;0.60;;;;;;;15.09;70.26;99053.25;10402109;28;20054;-65
2022/11/16 11:58:33;;;;;;;5.88;1.08;;;;;;;15.08;69.95;99046.19;10402620;28;20045;-65
2022/11/16 12:03:42;;;;;;;4.50;0.47;;;;;;;15.11;69.74;99050.31;10405204;28;20041;-65
2022/11/16 12:09:22;;;;;;;6.40;0.65;;;;;;;15.05;69.06;99031.25;10405244;28;20045;-65
2022/11/16 12:14:48;;;;;;;10.27;1.67;;;;;;;15.11;68.87;99043.00;10397208;28;20500;-64
2022/11/16 12:20:28;;;;;;;6.65;0.65;;;;;;;15.08;69.20;99027.22;10401364;28;20041;-67
2022/11/16 12:26:06;;;;;;;6.20;0.82;;;;;;;15.06;69.23;99024.75;10376928;28;20923;-63
2022/11/16 12:31:14;;;;;;;4.45;0.70;;;;;;;15.21;69.22;99010.72;10390972;28;20041;-62
2022/11/16 12:36:33;;;;;;;16.13;5.95;;;;;;;15.35;69.13;99016.69;10396818;28;20136;-63
2022/11/16 12:41:58;;;;;;;9.05;0.80;;;;;;;15.47;69.09;99003.13;10398608;28;20187;-64
2022/11/16 12:47:29;;;;;;;8.60;0.82;;;;;;;15.65;69.32;99011.03;10398170;28;20495;-65
2022/11/16 12:53:06;;;;;;;5.32;0.70;;;;;;;15.71;69.42;99011.16;10379621;28;20128;-65
2022/11/16 12:58:42;;;;;;;6.35;0.60;;;;;;;15.75;69.44;99012.34;10396943;28;20080;-63
2022/11/16 13:03:49;;;;;;;7.30;1.10;;;;;;;15.76;69.40;99000.44;10380497;28;20129;-61
2022/11/16 13:09:04;;;;;;;7.03;1.20;;;;;;;15.85;68.91;98977.28;10400154;28;20476;-63
2022/11/16 13:14:12;;;;;;;6.13;0.63;;;;;;;15.85;68.73;98974.56;10382133;28;20046;-64
2022/11/16 13:19:15;;;;;;;2.55;0.50;;;;;;;15.97;68.85;98972.59;10384832;28;20041;-63
2022/11/16 13:24:33;;;;;;;5.88;0.70;;;;;;;16.08;68.13;98964.66;10391716;28;20073;-63
2022/11/16 13:29:52;;;;;;;7.30;0.77;;;;;;;16.04;68.26;98970.56;10392083;28;20072;-63
2022/11/16 13:34:56;;;;;;;6.07;1.00;;;;;;;16.10;68.26;98960.63;10393734;28;20072;-64
2022/11/16 13:39:57;;;;;;;6.05;1.13;;;;;;;16.10;68.14;98955.22;10376542;28;20551;-64
2022/11/16 13:45:12;;;;;;;4.47;1.08;;;;;;;16.13;68.02;98945.75;10395601;28;20046;-62
2022/11/16 13:50:20;;;;;;;10.32;1.33;;;;;;;16.01;68.05;98940.41;10378494;28;20041;-64
2022/11/16 13:55:30;;;;;;;6.95;1.20;;;;;;;15.91;67.84;98940.25;10396098;28;20042;-63
2022/11/16 14:00:35;;;;;;;5.95;1.17;;;;;;;15.91;67.84;98941.06;10393342;28;20072;-63
2022/11/16 14:05:40;;;;;;;8.68;1.17;;;;;;;15.88;68.14;98938.03;10398251;28;20149;-65
2022/11/16 14:10:47;;;;;;;13.30;1.45;;;;;;;15.84;67.77;98933.13;10375075;28;20133;-66
2022/11/16 14:16:09;;;;;;;;;;;;;;;15.75;69.61;98921.03;10395108;28;20065;-65
2022/11/16 14:21:19;;;;;;;7.95;1.23;;;;;;;15.70;68.85;98926.34;10396832;28;19964;-65
2022/11/16 14:26:47;;;;;;;7.22;1.30;;;;;;;15.57;68.92;98916.63;10398398;28;20053;-64
2022/11/16 14:31:53;;;;;;;;;;;;;;;15.53;70.07;98907.34;10394248;28;20077;-66
2022/11/16 14:36:54;;;;;;;8.55;1.23;;;;;;;15.50;69.51;98913.28;10397378;28;19975;-65
2022/11/16 14:42:00;;;;;;;9.63;1.67;;;;;;;15.51;69.15;98914.91;10392640;28;20046;-66
2022/11/16 14:47:02;;;;;;;7.97;1.35;;;;;;;15.45;69.38;98919.41;10393680;28;20049;-65
2022/11/16 14:52:07;;;;;;;8.90;1.35;;;;;;;15.39;69.32;98909.53;10393792;28;20507;-66
2022/11/16 14:57:17;;;;;;;22.42;2.85;;;;;;;15.36;69.13;98911.91;10394408;28;20507;-65
2022/11/16 15:02:23;;;;;;;7.93;1.67;;;;;;;15.34;69.03;98914.03;10399068;28;20038;-66
2022/11/16 15:07:27;;;;;;;8.57;1.35;;;;;;;15.19;69.70;98904.56;10398599;28;20613;-66
2022/11/16 15:12:42;;;;;;;7.25;1.80;;;;;;;15.10;69.83;98903.31;10393946;28;20053;-66
2022/11/16 15:18:05;;;;;;;6.97;1.45;;;;;;;15.06;69.98;98899.44;10393493;28;20038;-66
2022/11/16 15:23:13;;;;;;;13.60;2.17;;;;;;;15.03;70.16;98897.22;10394751;28;20453;-65
2022/11/16 15:28:33;;;;;;;15.82;1.70;;;;;;;14.98;70.09;98897.13;10400994;28;20500;-66
2022/11/16 15:33:41;;;;;;;8.63;1.55;;;;;;;14.98;70.08;98889.81;10402223;28;20065;-66
2022/11/16 15:38:42;;;;;;;10.63;1.70;;;;;;;14.76;70.66;98896.97;10403393;28;20075;-66
2022/11/16 15:43:51;;;;;;;6.43;1.80;;;;;;;14.55;71.52;98893.78;10402955;28;20116;-65
2022/11/16 15:49:26;;;;;;;9.57;2.13;;;;;;;14.14;72.54;98900.16;10398932;28;20055;-65
2022/11/16 15:55:02;;;;;;;10.00;2.25;;;;;;;13.89;72.77;98891.22;10397362;28;20577;-65
2022/11/16 15:59:56;;;;;;;9.97;1.50;;;;;;;14.03;72.53;98880.22;10395414;28;20045;-64
2022/11/16 16:04:59;;;;;;;9.98;2.20;;;;;;;14.12;72.11;98880.66;10428426;23;20053;-89
2022/11/16 16:10:17;;;;;;;5.72;2.13;;;;;;;14.11;72.05;98868.22;10424845;28;20049;-88
2022/11/16 16:15:29;;;;;;;9.02;2.88;;;;;;;14.15;72.06;98855.88;10430317;28;20060;-92
2022/11/16 16:20:31;;;;;;;11.38;2.78;;;;;;;14.09;71.93;98871.97;10419339;28;20034;-90
2022/11/16 16:25:35;;;;;;;8.38;2.70;;;;;;;14.04;71.97;98866.47;10415974;28;20117;-88
2022/11/16 16:30:38;;;;;;;15.10;3.92;;;;;;;14.04;72.06;98858.38;10416527;28;20049;-89
2022/11/16 16:35:39;;;;;;;11.20;3.13;;;;;;;14.01;72.40;98864.22;10415322;28;20032;-89
2022/11/16 16:40:41;;;;;;;10.10;2.97;;;;;;;13.95;72.55;98867.06;10416264;28;20045;-91
2022/11/16 16:45:44;;;;;;;14.35;3.22;;;;;;;13.96;72.43;98864.13;10417915;28;20045;-92
2022/11/16 16:50:46;;;;;;;8.43;2.90;;;;;;;13.96;72.49;98857.88;10410128;28;20056;-91
2022/11/16 16:55:51;;;;;;;9.68;2.72;;;;;;;13.94;72.43;98858.13;10384581;28;20052;-92
2022/11/16 17:01:07;;;;;;;8.13;2.22;;;;;;;13.88;72.54;98857.19;10376875;28;20026;-91
2022/11/16 17:06:10;;;;;;;9.68;2.42;;;;;;;13.84;72.63;98852.47;11637967;23;21261;-64
2022/11/16 17:22:13;;;;;;;13.43;3.97;;;;;;;13.71;72.67;98829.22;12453245;23;20104;-65
2022/11/16 17:27:15;;;;;;;6.93;2.85;;;;;;;13.62;72.63;98828.72;11822478;23;20082;-67
2022/11/16 17:32:17;;;;;;;9.55;3.42;;;;;;;13.57;72.65;98823.22;10374145;23;20054;-65
2022/11/16 17:37:19;;;;;;;10.02;4.55;;;;;;;13.59;72.75;98818.41;10482021;23;20057;-93
2022/11/16 17:42:22;;;;;;;10.73;4.88;;;;;;;13.59;73.02;98812.22;10302598;28;20111;-90
2022/11/16 17:47:25;;;;;;;12.35;4.38;;;;;;;13.58;73.34;98816.75;11148417;23;20052;-91
2022/11/16 18:03:00;;;;;;;6.80;3.05;;;;;;;13.52;72.90;98808.78;10430834;23;20057;-92
2022/11/16 18:08:03;;;;;;;9.95;3.05;;;;;;;13.53;73.22;98800.47;10240067;23;20245;-67
2022/11/16 18:13:05;;;;;;;14.10;3.25;;;;;;;13.58;73.23;98805.16;10240109;28;20118;-65
2022/11/16 18:18:07;;;;;;;6.13;2.50;;;;;;;13.58;72.86;98784.34;10240235;28;20134;-68
2022/11/16 18:23:08;;;;;;;8.85;2.50;;;;;;;13.56;73.00;98791.88;10239471;28;20038;-68
2022/11/16 18:28:09;;;;;;;11.55;2.67;;;;;;;13.57;73.14;98787.31;10242671;28;20585;-66
2022/11/16 18:33:11;;;;;;;7.55;3.95;;;;;;;13.53;73.02;98780.75;10253081;28;20039;-68
2022/11/16 18:38:13;;;;;;;7.15;3.45;;;;;;;13.55;73.22;98789.44;10414254;23;20052;-66
2022/11/16 19:00:08;;;;;;;99.53;34.47;;;;;;;13.55;73.28;98757.84;11800394;23;20050;31
2022/11/16 19:05:09;;;;;;;70.30;26.13;;;;;;;13.58;73.33;98746.56;10115080;29;20067;-67
2022/11/16 19:10:12;;;;;;;61.15;22.05;;;;;;;13.50;73.29;98741.53;11791234;23;20047;-68
2022/11/16 19:15:14;;;;;;;60.63;22.52;;;;;;;13.52;73.47;98739.41;10312008;23;20860;-68
2022/11/16 19:20:15;;;;;;;53.95;18.98;;;;;;;13.53;73.32;98730.25;10254778;29;20040;-67
2022/11/16 19:25:16;;;;;;;52.30;20.23;;;;;;;13.52;73.13;98744.00;10296746;23;20031;-90
2022/11/16 19:30:18;;;;;;;53.60;20.25;;;;;;;13.52;73.10;98736.72;10279747;28;20115;-92
2022/11/16 19:35:21;;;;;;;49.80;20.55;;;;;;;13.56;73.10;98742.47;10257407;28;20035;-91
2022/11/16 19:40:23;;;;;;;43.60;15.93;;;;;;;13.54;73.47;98744.56;10273106;29;20031;-92
2022/11/16 19:45:29;;;;;;;29.45;11.95;;;;;;;13.54;73.41;98745.38;10259765;28;20039;-91
2022/11/16 19:50:30;;;;;;;28.27;11.63;;;;;;;13.56;73.23;98743.28;10279179;28;20051;-91
2022/11/16 19:55:32;;;;;;;18.38;7.57;;;;;;;13.48;73.60;98744.44;10278846;28;20048;-91
2022/11/16 20:00:34;;;;;;;16.98;9.23;;;;;;;13.48;73.19;98736.34;10189853;23;20060;-68
2022/11/16 20:05:35;;;;;;;26.65;15.15;;;;;;;13.41;73.47;98745.66;10329147;23;20046;-67
2022/11/16 20:10:37;;;;;;;35.25;16.75;;;;;;;13.40;73.41;98752.09;10237157;28;20129;-67
2022/11/16 20:15:38;;;;;;;39.75;17.65;;;;;;;13.44;73.36;98745.16;10215509;28;20066;-68
2022/11/16 20:20:40;;;;;;;29.67;12.88;;;;;;;13.44;73.53;98745.97;10242782;28;20096;-67
2022/11/16 20:25:41;;;;;;;14.10;7.10;;;;;;;13.47;73.46;98725.81;10333938;23;20470;-67
2022/11/16 20:30:46;;;;;;;10.05;4.13;;;;;;;13.45;73.46;98717.13;10335995;23;20051;-67
2022/11/16 20:35:48;;;;;;;18.23;7.78;;;;;;;13.42;73.15;98712.19;10260243;28;20048;-67
2022/11/16 20:40:49;;;;;;;10.70;4.60;;;;;;;13.35;73.52;98717.72;10292846;23;20078;-68
2022/11/16 20:45:52;;;;;;;11.82;5.50;;;;;;;13.31;73.25;98700.34;10394828;23;20128;-66
2022/11/16 20:50:54;;;;;;;8.82;5.55;;;;;;;13.26;73.31;98706.41;10269507;23;20134;-66
2022/11/16 20:55:56;;;;;;;10.02;6.05;;;;;;;13.19;73.38;98696.78;10206924;29;20043;-68
2022/11/16 21:01:11;;;;;;;12.57;7.03;;;;;;;13.06;73.35;98700.53;10216499;29;20534;-68
2022/11/16 21:06:13;;;;;;;9.15;4.57;;;;;;;12.99;73.63;98689.00;10241742;28;20491;-68
2022/11/16 21:11:21;;;;;;;13.02;5.03;;;;;;;12.91;73.58;98682.09;10224819;28;20047;-68
2022/11/16 21:16:23;;;;;;;13.50;6.57;;;;;;;12.81;73.33;98685.34;10207601;29;20158;-67
2022/11/16 21:21:25;;;;;;;13.70;6.68;;;;;;;12.57;73.75;98675.56;10228089;28;20075;-67
2022/11/16 21:26:31;;;;;;;11.45;3.67;;;;;;;12.43;73.89;98670.38;10207819;28;20086;-68
2022/11/16 21:31:35;;;;;;;8.73;3.30;;;;;;;12.45;73.68;98662.06;10200158;28;20580;-69
2022/11/16 21:36:36;;;;;;;8.93;4.00;;;;;;;12.38;73.68;98659.47;10196698;29;20286;-68
2022/11/16 21:41:38;;;;;;;16.25;8.32;;;;;;;12.28;73.79;98651.09;10206596;28;20039;-67
2022/11/16 21:46:39;;;;;;;14.38;7.82;;;;;;;12.22;73.72;98649.34;10212503;28;20106;-68
2022/11/16 21:51:40;;;;;;;8.45;4.30;;;;;;;12.10;74.06;98646.59;10205364;29;20118;-68
2022/11/16 21:56:42;;;;;;;8.70;3.83;;;;;;;12.07;74.56;98647.88;10210233;28;20086;-68
2022/11/16 22:01:58;;;;;;;13.13;4.00;;;;;;;12.17;74.29;98651.91;10224840;29;20051;-68
2022/11/16 22:12:20;;;;;;;15.45;6.97;;;;;;;12.15;74.23;98635.16;10205059;29;20048;-68
2022/11/16 22:22:37;;;;;;;13.30;6.20;;;;;;;12.21;74.33;98626.16;10249711;23;20047;-68
2022/11/16 22:27:39;;;;;;;14.15;5.00;;;;;;;12.22;74.26;98619.69;10219035;29;20071;-68
2022/11/16 22:33:00;;;;;;;10.63;4.78;;;;;;;12.19;74.01;98614.78;10218870;29;20109;-67
2022/11/16 22:38:03;;;;;;;11.30;4.65;;;;;;;12.08;74.63;98597.53;10236546;29;20056;-68
2022/11/16 22:43:04;;;;;;;16.13;6.68;;;;;;;12.17;73.95;98592.66;10218153;29;20055;-68
2022/11/16 22:48:06;;;;;;;13.05;6.05;;;;;;;12.09;74.53;98594.59;10218661;29;20146;-68
2022/11/16 22:53:08;;;;;;;13.73;5.35;;;;;;;12.11;74.27;98580.91;10220038;29;20159;-68
2022/11/16 22:58:10;;;;;;;10.60;4.90;;;;;;;12.18;73.83;98575.41;10219998;28;20154;-68
2022/11/16 23:03:11;;;;;;;9.52;5.43;;;;;;;12.20;74.28;98584.09;10225028;29;20075;-67
2022/11/16 23:08:13;;;;;;;13.95;6.13;;;;;;;12.22;74.34;98577.44;10211967;29;20067;-68
2022/11/16 23:29:16;;;;;;;13.23;5.25;;;;;;;12.24;73.93;98539.47;10237125;29;20071;-66
2022/11/16 23:34:18;;;;;;;10.77;5.10;;;;;;;12.25;74.15;98531.16;10227014;29;20067;-66
2022/11/16 23:39:20;;;;;;;7.03;3.90;;;;;;;12.27;73.92;98523.66;10231712;29;20055;-66
2022/11/16 23:44:21;;;;;;;10.05;4.05;;;;;;;12.22;73.92;98506.56;10226099;29;20135;-67
2022/11/16 23:49:23;;;;;;;11.15;3.63;;;;;;;12.21;73.87;98496.84;10214648;29;20071;-68
2022/11/16 23:54:24;;;;;;;8.43;4.82;;;;;;;12.27;73.74;98487.84;10231739;28;20063;-66
2022/11/16 23:59:25;;;;;;;10.82;5.45;;;;;;;12.31;74.14;98483.63;10227624;29;20446;-67
